Terminal Aerodrome Forecast
Issued by NWS Cleveland, OH

Home | Current Version | Previous Version | Graphics & Text | Print | Product List | Glossary On
Versions: 1 2 3 4 5 6 7 8 9 10 11 12 13 14 15 16 17 18 19
642
FTUS41 KCLE 211933 AAB
TAFTOL
TAF AMD
KTOL 211933Z 2120/2218 23011KT P6SM SCT035 BKN250
     FM212100 23012KT 3SM -TSRA OVC025CB
      TEMPO 2121/2123 VRB35G45KT 1SM -TSRA OVC010CB
     FM220000 23005KT P6SM SCT035 BKN080
      TEMPO 2209/2212 5SM BR
     FM221200 24012KT P6SM VCSH BKN035=

USA.gov is the U.S. government's official web portal to all federal, state and local government web resources and services.